createdAt,value
2022-10-22T00:00:36.302Z,5.00
2022-10-22T00:05:40.413Z,4.82
2022-10-22T00:10:43.271Z,6.90
2022-10-22T00:15:45.873Z,5.85
2022-10-22T00:20:49.821Z,6.80
2022-10-22T00:25:53.862Z,8.15
2022-10-22T00:30:57.781Z,8.18
2022-10-22T00:36:01.704Z,6.03
2022-10-22T00:41:04.353Z,5.38
2022-10-22T00:46:06.925Z,6.22
2022-10-22T00:51:10.952Z,4.85
2022-10-22T00:56:13.620Z,6.57
2022-10-22T01:01:21.528Z,4.07
2022-10-22T01:06:27.759Z,5.85
2022-10-22T01:11:38.369Z,8.32
2022-10-22T01:16:45.405Z,5.78
2022-10-22T01:21:55.764Z,7.50
2022-10-22T01:27:07.514Z,7.68
2022-10-22T01:32:15.344Z,7.72
2022-10-22T01:37:19.136Z,7.47
2022-10-22T01:42:21.918Z,6.50
2022-10-22T01:47:36.460Z,5.38
2022-10-22T01:52:49.893Z,5.55
2022-10-22T01:58:00.691Z,7.97
2022-10-22T02:03:07.370Z,6.78
2022-10-22T02:08:11.324Z,7.63
2022-10-22T02:13:17.203Z,6.93
2022-10-22T02:18:23.603Z,5.30
2022-10-22T02:23:26.298Z,7.10
2022-10-22T02:28:33.732Z,7.55
2022-10-22T02:33:40.507Z,5.40
2022-10-22T02:38:43.265Z,8.02
2022-10-22T02:43:51.514Z,4.88
2022-10-22T02:48:55.754Z,8.18
2022-10-22T02:53:58.473Z,5.88
2022-10-22T02:59:01.088Z,9.57
2022-10-22T03:04:05.444Z,7.47
2022-10-22T03:09:08.091Z,8.65
2022-10-22T03:14:10.748Z,5.60
2022-10-22T03:19:14.850Z,12.95
2022-10-22T03:24:19.268Z,8.75
2022-10-22T03:29:22.499Z,7.38
2022-10-22T03:34:26.452Z,8.00
2022-10-22T03:39:30.102Z,7.00
2022-10-22T03:44:33.196Z,8.90
2022-10-22T03:49:37.262Z,7.70
2022-10-22T03:54:40.303Z,6.78
2022-10-22T03:59:44.848Z,9.77
2022-10-22T04:04:48.833Z,8.05
2022-10-22T04:09:51.435Z,6.15
2022-10-22T04:14:54.115Z,7.97
2022-10-22T04:19:58.140Z,5.47
2022-10-22T04:25:00.771Z,7.20
2022-10-22T04:30:03.940Z,6.72
2022-10-22T04:35:08.832Z,6.78
2022-10-22T04:40:12.912Z,7.15
2022-10-22T04:45:16.133Z,7.13
2022-10-22T04:50:20.573Z,7.85
2022-10-22T04:55:23.267Z,7.03
2022-10-22T05:00:25.913Z,5.88
2022-10-22T05:05:29.841Z,6.95
2022-10-22T05:10:32.430Z,6.50
2022-10-22T05:15:36.279Z,4.93
2022-10-22T05:20:42.254Z,7.25
2022-10-22T05:25:44.892Z,5.53
2022-10-22T05:30:54.115Z,6.85
2022-10-22T05:35:58.736Z,7.15
2022-10-22T05:41:01.948Z,8.70
2022-10-22T05:46:06.768Z,5.80
2022-10-22T05:51:11.975Z,6.75
2022-10-22T05:56:16.372Z,5.03
2022-10-22T06:01:20.945Z,6.53
2022-10-22T06:06:28.778Z,7.05
2022-10-22T06:11:34.279Z,6.07
2022-10-22T06:16:38.037Z,7.05
2022-10-22T06:21:42.401Z,8.25
2022-10-22T06:26:45.448Z,8.35
2022-10-22T06:31:48.660Z,7.80
2022-10-22T06:36:52.613Z,7.30
2022-10-22T06:41:55.322Z,6.20
2022-10-22T06:46:57.932Z,5.70
2022-10-22T06:52:01.911Z,6.32
2022-10-22T06:57:04.718Z,4.65
2022-10-22T07:02:07.582Z,6.40
2022-10-22T07:07:11.586Z,7.82
2022-10-22T07:12:14.521Z,6.13
2022-10-22T07:17:17.126Z,6.05
2022-10-22T07:22:21.240Z,4.75
2022-10-22T07:27:23.979Z,8.20
2022-10-22T07:32:26.573Z,4.25
2022-10-22T07:37:30.487Z,5.45
2022-10-22T07:42:33.109Z,4.22
2022-10-22T07:47:35.826Z,4.18
2022-10-22T07:52:40.178Z,3.08
2022-10-22T07:57:43.064Z,3.28
2022-10-22T08:02:45.664Z,3.63
2022-10-22T08:07:49.631Z,6.10
2022-10-22T08:12:52.233Z,4.18
2022-10-22T08:17:54.905Z,2.10
2022-10-22T08:22:59.446Z,2.40
2022-10-22T08:28:02.168Z,2.42
2022-10-22T08:33:05.375Z,2.22
2022-10-22T08:38:09.519Z,5.68
2022-10-22T08:43:25.830Z,1.88
2022-10-22T08:48:40.655Z,1.73
2022-10-22T08:53:54.095Z,1.55
2022-10-22T08:59:00.847Z,4.20
2022-10-22T09:04:07.699Z,1.40
2022-10-22T09:09:14.140Z,3.75
2022-10-22T09:14:18.706Z,1.67
2022-10-22T09:19:26.267Z,4.18
2022-10-22T09:24:34.573Z,1.15
2022-10-22T09:29:38.191Z,1.00
2022-10-22T09:34:41.107Z,2.85
2022-10-22T09:39:47.606Z,0.70
2022-10-22T09:44:53.291Z,2.70
2022-10-22T09:50:06.068Z,4.10
2022-10-22T09:55:15.580Z,0.68
2022-10-22T10:00:20.108Z,3.50
2022-10-22T10:05:27.212Z,1.10
2022-10-22T10:10:36.459Z,2.05
2022-10-22T10:15:44.904Z,3.47
2022-10-22T10:20:54.087Z,2.35
2022-10-22T10:26:02.440Z,1.00
2022-10-22T10:31:12.004Z,1.25
2022-10-22T10:36:20.836Z,0.82
2022-10-22T10:41:31.788Z,1.55
2022-10-22T10:46:38.905Z,2.17
2022-10-22T10:51:50.236Z,0.50
2022-10-22T10:56:57.575Z,1.65
2022-10-22T11:02:33.789Z,1.17
2022-10-22T11:07:40.439Z,0.68
2022-10-22T11:12:48.741Z,0.40
2022-10-22T11:17:52.780Z,2.05
2022-10-22T11:23:18.172Z,0.68
2022-10-22T11:28:26.076Z,2.17
2022-10-22T11:33:43.608Z,0.73
2022-10-22T11:38:46.505Z,0.63
2022-10-22T11:44:10.732Z,1.55
2022-10-22T11:49:24.519Z,1.38
2022-10-22T11:54:42.424Z,0.68
2022-10-22T11:59:51.038Z,1.10
2022-10-22T12:04:53.782Z,2.15
2022-10-22T12:09:56.777Z,0.98
2022-10-22T12:15:00.887Z,1.63
2022-10-22T12:20:09.117Z,2.13
2022-10-22T12:25:19.924Z,0.60
2022-10-22T12:30:26.169Z,0.50
2022-10-22T12:35:30.634Z,0.68
2022-10-22T12:40:35.614Z,2.70
2022-10-22T12:45:39.828Z,1.50
2022-10-22T12:50:44.238Z,0.45
2022-10-22T12:55:50.138Z,0.40
2022-10-22T13:01:00.746Z,1.30
2022-10-22T13:06:13.535Z,1.75
2022-10-22T13:11:21.393Z,1.35
2022-10-22T13:16:27.776Z,2.05
2022-10-22T13:21:35.146Z,1.00
2022-10-22T13:26:38.747Z,0.80
2022-10-22T13:31:48.333Z,0.65
2022-10-22T13:36:51.610Z,1.75
2022-10-22T13:41:54.261Z,1.92
2022-10-22T13:46:58.278Z,0.30
2022-10-22T13:52:01.027Z,0.40
2022-10-22T13:57:03.703Z,2.00
2022-10-22T14:02:12.537Z,1.02
2022-10-22T14:07:16.428Z,1.73
2022-10-22T14:12:19.044Z,0.63
2022-10-22T14:17:23.086Z,0.50
2022-10-22T14:22:28.174Z,0.57
2022-10-22T14:27:30.797Z,0.50
2022-10-22T14:32:34.821Z,0.98
2022-10-22T14:37:37.451Z,2.05
2022-10-22T14:42:42.358Z,3.50
2022-10-22T14:47:46.645Z,2.47
2022-10-22T14:52:49.543Z,1.35
2022-10-22T14:57:52.186Z,3.15
2022-10-22T15:02:56.220Z,0.98
2022-10-22T15:08:00.182Z,1.75
2022-10-22T15:13:03.002Z,3.22
2022-10-22T15:18:07.208Z,2.58
2022-10-22T15:23:09.842Z,3.33
2022-10-22T15:28:12.535Z,1.95
2022-10-22T15:33:16.604Z,3.78
2022-10-22T15:38:19.526Z,3.58
2022-10-22T15:43:22.486Z,2.10
2022-10-22T15:48:26.477Z,1.95
2022-10-22T15:53:29.180Z,3.00
2022-10-22T15:58:32.031Z,3.92
2022-10-22T16:03:36.451Z,2.95
2022-10-22T16:08:39.766Z,3.55
2022-10-22T16:13:42.456Z,2.15
2022-10-22T16:18:46.680Z,1.77
2022-10-22T16:23:49.609Z,1.10
2022-10-22T16:28:52.418Z,1.85
2022-10-22T16:33:56.634Z,2.17
2022-10-22T16:38:59.244Z,3.88
2022-10-22T16:44:03.239Z,2.47
2022-10-22T16:49:08.215Z,2.15
2022-10-22T16:54:13.037Z,3.85
2022-10-22T16:59:15.627Z,7.88
2022-10-22T17:04:19.575Z,2.50
2022-10-22T17:09:24.114Z,3.63
2022-10-22T17:14:26.869Z,2.75
2022-10-22T17:19:31.026Z,7.15
2022-10-22T17:24:33.712Z,3.08
2022-10-22T17:29:37.189Z,3.97
2022-10-22T17:34:41.185Z,2.53
2022-10-22T17:39:43.818Z,3.05
2022-10-22T17:44:46.402Z,2.00
2022-10-22T17:49:50.391Z,4.45
2022-10-22T17:54:53.648Z,21.23
2022-10-22T17:59:56.360Z,28.10
2022-10-22T18:05:00.297Z,14.82
2022-10-22T18:10:02.969Z,7.88
2022-10-22T18:15:06.581Z,7.38
2022-10-22T18:20:12.153Z,5.13
2022-10-22T18:25:14.852Z,5.22
2022-10-22T18:30:17.708Z,3.10
2022-10-22T18:35:21.692Z,4.43
2022-10-22T18:40:24.293Z,2.65
2022-10-22T18:45:26.894Z,3.50
2022-10-22T18:55:39.673Z,3.60
2022-10-22T19:00:42.313Z,3.42
2022-10-22T19:05:48.525Z,2.65
2022-10-22T19:10:51.151Z,4.20
2022-10-22T19:15:54.051Z,5.60
2022-10-22T19:21:01.058Z,9.45
2022-10-22T19:26:06.208Z,4.72
2022-10-22T19:31:09.723Z,3.13
2022-10-22T19:36:14.822Z,3.17
2022-10-22T19:41:20.188Z,2.60
2022-10-22T19:46:23.900Z,4.88
2022-10-22T19:51:30.656Z,9.75
2022-10-22T19:56:34.405Z,4.93
2022-10-22T20:01:37.171Z,3.60
2022-10-22T20:06:41.363Z,3.95
2022-10-22T20:11:44.278Z,3.00
2022-10-22T20:16:46.936Z,4.93
2022-10-22T20:21:51.030Z,5.90
2022-10-22T20:26:53.766Z,6.70
2022-10-22T20:31:56.464Z,5.13
2022-10-22T20:37:00.403Z,5.43
2022-10-22T20:42:03.009Z,7.90
2022-10-22T20:47:05.761Z,5.30
2022-10-22T20:52:09.792Z,7.07
2022-10-22T20:57:13.160Z,3.92
2022-10-22T21:02:15.858Z,10.13
2022-10-22T21:07:19.831Z,3.72
2022-10-22T21:12:22.421Z,5.22
2022-10-22T21:17:25.004Z,4.75
2022-10-22T21:22:29.093Z,5.95
2022-10-22T21:27:31.695Z,4.93
2022-10-22T21:32:34.654Z,5.43
2022-10-22T21:37:38.844Z,6.00
2022-10-22T21:42:41.546Z,4.53
2022-10-22T21:47:44.383Z,3.70
2022-10-22T21:52:48.744Z,3.03
2022-10-22T21:57:51.522Z,7.53
2022-10-22T22:02:54.133Z,2.67
2022-10-22T22:07:58.076Z,6.13
2022-10-22T22:13:00.628Z,5.15
2022-10-22T22:18:03.419Z,8.23
2022-10-22T22:23:07.478Z,4.00
2022-10-22T22:28:10.116Z,8.05
2022-10-22T22:33:12.720Z,3.90
2022-10-22T22:38:18.314Z,6.68
2022-10-22T22:43:20.893Z,7.85
2022-10-22T22:48:23.481Z,7.32
2022-10-22T22:53:28.191Z,7.18
2022-10-22T22:58:30.834Z,10.50
2022-10-22T23:03:33.411Z,4.00
2022-10-22T23:08:37.810Z,4.97
2022-10-22T23:13:42.127Z,4.50
2022-10-22T23:18:45.302Z,3.05
2022-10-22T23:23:50.706Z,5.80
2022-10-22T23:28:53.347Z,2.58
2022-10-22T23:33:56.003Z,4.75
2022-10-22T23:39:00.044Z,3.35
2022-10-22T23:44:02.756Z,3.97
2022-10-22T23:49:06.173Z,4.75
2022-10-22T23:54:12.536Z,2.35
2022-10-22T23:59:15.609Z,4.40
